CXI weather

Cassidy International Airport
Banana, Line Islands, Kiribati

Public forecast

Using degrees Celsius for public forecast. Weather courtesy of forecast.io.

Current aviation weather report (METAR) for Cassidy International Airport

Retrieved 2020/02/18 18:00 UTC (37 minutes ago):

PLCH 181800Z 08011KT 9999 FEW019 BKN100 28/22 Q1006

Aviation forecast (TAF) for Cassidy International Airport

Retrieved 2020/02/18 18:00 UTC (37 minutes ago):

TAF PLCH 181708Z 1818/1918 09008KT 9999 SCT020